createdAt,value
2018-05-02T00:00:28.069Z,18.20
2018-05-02T00:02:55.575Z,18.20
2018-05-02T00:05:23.078Z,18.20
2018-05-02T00:07:50.597Z,18.20
2018-05-02T00:10:18.085Z,18.20
2018-05-02T00:12:45.593Z,18.20
2018-05-02T00:15:13.853Z,18.20
2018-05-02T00:17:41.365Z,18.20
2018-05-02T00:20:08.869Z,18.20
2018-05-02T00:22:37.147Z,18.10
2018-05-02T00:25:05.410Z,18.10
2018-05-02T00:27:32.910Z,18.10
2018-05-02T00:30:00.409Z,18.10
2018-05-02T00:32:28.636Z,18.10
2018-05-02T00:34:56.911Z,18.00
2018-05-02T00:37:24.409Z,17.90
2018-05-02T00:39:51.480Z,17.90
2018-05-02T00:42:18.621Z,17.90
2018-05-02T00:44:45.688Z,17.90
2018-05-02T00:47:13.532Z,17.80
2018-05-02T00:49:40.601Z,17.80
2018-05-02T00:52:07.681Z,17.80
2018-05-02T00:54:34.747Z,17.80
2018-05-02T00:57:01.805Z,17.70
2018-05-02T00:59:28.879Z,17.70
2018-05-02T01:01:55.955Z,17.70
2018-05-02T01:04:23.780Z,17.60
2018-05-02T01:06:50.854Z,17.60
2018-05-02T01:09:17.927Z,17.60
2018-05-02T01:11:45.757Z,17.60
2018-05-02T01:14:12.816Z,17.60
2018-05-02T01:16:39.872Z,17.50
2018-05-02T01:19:07.695Z,17.30
2018-05-02T01:21:34.738Z,17.30
2018-05-02T01:24:01.797Z,17.20
2018-05-02T01:26:28.858Z,17.10
2018-05-02T01:28:55.909Z,17.00
2018-05-02T01:31:22.985Z,17.00
2018-05-02T01:33:50.812Z,17.00
2018-05-02T01:36:17.873Z,17.00
2018-05-02T01:38:44.933Z,17.00
2018-05-02T01:41:12.025Z,17.00
2018-05-02T01:43:39.077Z,17.00
2018-05-02T01:46:06.130Z,16.90
2018-05-02T01:48:33.177Z,16.90
2018-05-02T01:51:00.224Z,16.90
2018-05-02T01:53:27.277Z,16.70
2018-05-02T01:55:54.342Z,16.70
2018-05-02T01:58:21.403Z,16.50
2018-05-02T02:00:48.472Z,16.40
2018-05-02T02:03:16.292Z,16.30
2018-05-02T02:05:43.433Z,16.20
2018-05-02T02:08:10.479Z,16.20
2018-05-02T02:10:37.557Z,16.20
2018-05-02T02:13:04.617Z,16.20
2018-05-02T02:15:31.716Z,16.20
2018-05-02T02:17:58.782Z,16.20
2018-05-02T02:20:25.825Z,16.20
2018-05-02T02:22:52.888Z,16.10
2018-05-02T02:25:19.944Z,16.20
2018-05-02T02:27:47.169Z,16.20
2018-05-02T02:30:14.216Z,16.20
2018-05-02T02:32:41.263Z,16.20
2018-05-02T02:35:08.317Z,16.10
2018-05-02T02:37:35.365Z,16.10
2018-05-02T02:40:02.435Z,16.10
2018-05-02T02:42:29.477Z,16.10
2018-05-02T02:44:56.531Z,16.10
2018-05-02T02:47:23.655Z,16.10
2018-05-02T02:49:50.804Z,16.10
2018-05-02T02:52:17.872Z,16.10
2018-05-02T02:54:44.921Z,16.10
2018-05-02T02:57:11.983Z,16.10
2018-05-02T02:59:39.031Z,16.10
2018-05-02T03:02:06.079Z,16.10
2018-05-02T03:04:33.140Z,16.00
2018-05-02T03:07:00.188Z,16.00
2018-05-02T03:09:27.240Z,15.90
2018-05-02T03:11:54.285Z,15.80
2018-05-02T03:14:21.349Z,15.80
2018-05-02T03:16:49.171Z,15.70
2018-05-02T03:19:16.220Z,15.60
2018-05-02T03:21:43.289Z,15.60
2018-05-02T03:24:10.345Z,15.60
2018-05-02T03:26:37.417Z,15.60
2018-05-02T03:29:05.225Z,15.60
2018-05-02T03:31:32.269Z,15.60
2018-05-02T03:33:59.340Z,15.60
2018-05-02T03:36:26.441Z,15.60
2018-05-02T03:38:53.493Z,15.60
2018-05-02T03:41:20.549Z,15.50
2018-05-02T03:43:47.605Z,15.60
2018-05-02T03:46:14.657Z,15.50
2018-05-02T03:48:41.706Z,15.50
2018-05-02T03:51:08.768Z,15.50
2018-05-02T03:53:35.834Z,15.40
2018-05-02T03:56:02.886Z,15.40
2018-05-02T03:58:29.983Z,15.40
2018-05-02T04:01:02.898Z,15.30
2018-05-02T04:03:35.864Z,15.30
2018-05-02T04:06:08.761Z,15.30
2018-05-02T04:08:35.834Z,15.20
2018-05-02T04:11:02.869Z,15.20
2018-05-02T04:13:29.918Z,15.20
2018-05-02T04:15:56.964Z,15.10
2018-05-02T04:18:24.012Z,15.10
2018-05-02T04:20:51.060Z,15.20
2018-05-02T04:23:18.112Z,15.20
2018-05-02T04:25:45.170Z,15.10
2018-05-02T04:28:12.216Z,15.10
2018-05-02T04:30:40.901Z,15.10
2018-05-02T04:33:07.957Z,15.10
2018-05-02T04:35:35.774Z,15.20
2018-05-02T04:38:02.820Z,15.10
2018-05-02T04:40:29.865Z,15.20
2018-05-02T04:42:56.927Z,15.20
2018-05-02T04:45:23.972Z,15.20
2018-05-02T04:47:51.017Z,15.30
2018-05-02T04:50:18.146Z,15.30
2018-05-02T04:52:45.223Z,15.30
2018-05-02T04:55:12.284Z,15.30
2018-05-02T04:57:39.401Z,15.30
2018-05-02T05:00:06.453Z,15.40
2018-05-02T05:02:33.505Z,15.40
2018-05-02T05:05:00.569Z,15.40
2018-05-02T05:07:27.641Z,15.50
2018-05-02T05:09:54.696Z,15.60
2018-05-02T05:12:21.797Z,15.70
2018-05-02T05:14:49.657Z,15.80
2018-05-02T05:17:16.709Z,15.80
2018-05-02T05:19:43.785Z,15.90
2018-05-02T05:22:10.858Z,16.00
2018-05-02T05:24:38.685Z,16.10
2018-05-02T05:27:05.753Z,16.10
2018-05-02T05:29:32.822Z,16.20
2018-05-02T05:32:00.657Z,16.30
2018-05-02T05:34:27.721Z,16.30
2018-05-02T05:36:55.561Z,16.40
2018-05-02T05:39:22.625Z,16.40
2018-05-02T05:41:50.023Z,16.40
2018-05-02T05:44:17.841Z,16.60
2018-05-02T05:46:44.911Z,16.60
2018-05-02T05:49:11.981Z,16.70
2018-05-02T05:51:39.805Z,16.80
2018-05-02T05:54:06.944Z,16.80
2018-05-02T05:56:33.945Z,16.90
2018-05-02T05:59:01.789Z,17.00
2018-05-02T06:01:28.855Z,17.00
2018-05-02T06:03:56.706Z,17.20
2018-05-02T06:06:23.753Z,17.10
2018-05-02T06:08:50.812Z,17.20
2018-05-02T06:11:18.646Z,17.30
2018-05-02T06:13:45.759Z,17.30
2018-05-02T06:16:12.825Z,17.40
2018-05-02T06:18:40.011Z,17.40
2018-05-02T06:21:07.025Z,17.50
2018-05-02T06:23:34.085Z,17.50
2018-05-02T06:26:01.163Z,17.50
2018-05-02T06:28:28.993Z,17.50
2018-05-02T06:30:56.076Z,17.50
2018-05-02T06:33:23.917Z,17.60
2018-05-02T06:35:51.039Z,17.50
2018-05-02T06:38:18.095Z,17.60
2018-05-02T06:40:45.168Z,17.60
2018-05-02T06:43:12.246Z,17.70
2018-05-02T06:45:40.073Z,17.80
2018-05-02T06:48:07.161Z,17.80
2018-05-02T06:50:34.992Z,17.90
2018-05-02T06:53:02.077Z,17.90
2018-05-02T06:55:29.925Z,18.00
2018-05-02T06:57:56.986Z,18.00
2018-05-02T07:00:24.055Z,18.10
2018-05-02T07:02:51.106Z,18.20
2018-05-02T07:05:18.170Z,18.30
2018-05-02T07:07:45.222Z,18.40
2018-05-02T07:10:12.297Z,18.50
2018-05-02T07:12:39.354Z,18.50
2018-05-02T07:15:06.438Z,18.60
2018-05-02T07:17:33.511Z,18.60
2018-05-02T07:20:00.580Z,18.70
2018-05-02T07:22:27.629Z,18.80
2018-05-02T07:24:55.126Z,18.80
2018-05-02T07:27:22.619Z,18.90
2018-05-02T07:29:50.132Z,19.00
2018-05-02T07:32:18.433Z,19.20
2018-05-02T07:34:46.713Z,19.20
2018-05-02T07:37:14.985Z,19.30
2018-05-02T07:39:43.256Z,19.40
2018-05-02T07:42:12.331Z,19.50
2018-05-02T07:44:39.761Z,19.50
2018-05-02T07:47:07.258Z,19.60
2018-05-02T07:49:34.749Z,19.80
2018-05-02T07:52:02.247Z,19.90
2018-05-02T07:54:29.759Z,20.00
2018-05-02T07:56:57.270Z,20.10
2018-05-02T07:59:24.759Z,20.10
2018-05-02T08:01:53.021Z,20.30
2018-05-02T08:04:20.525Z,20.20
2018-05-02T08:06:48.033Z,20.40
2018-05-02T08:09:16.293Z,20.70
2018-05-02T08:11:43.800Z,20.70
2018-05-02T08:14:12.068Z,21.00
2018-05-02T08:16:40.322Z,21.20
2018-05-02T08:19:07.820Z,21.10
2018-05-02T08:21:35.317Z,21.20
2018-05-02T08:24:02.809Z,21.40
2018-05-02T08:26:31.066Z,21.70
2018-05-02T08:28:58.569Z,21.60
2018-05-02T08:31:26.069Z,21.90
2018-05-02T08:33:53.564Z,22.00
2018-05-02T08:36:21.929Z,22.30
2018-05-02T08:38:49.626Z,22.30
2018-05-02T08:41:17.854Z,22.50
2018-05-02T08:43:46.854Z,22.60
2018-05-02T08:46:14.363Z,22.60
2018-05-02T08:48:41.854Z,22.80
2018-05-02T08:51:09.350Z,22.90
2018-05-02T08:53:37.625Z,23.20
2018-05-02T08:56:05.896Z,23.20
2018-05-02T08:58:34.161Z,23.20
2018-05-02T09:01:02.441Z,23.30
2018-05-02T09:03:29.945Z,23.30
2018-05-02T09:05:57.443Z,23.50
2018-05-02T09:08:24.951Z,23.70
2018-05-02T09:10:52.446Z,23.80
2018-05-02T09:13:19.938Z,23.90
2018-05-02T09:15:47.436Z,24.00
2018-05-02T09:18:14.934Z,24.10
2018-05-02T09:20:42.429Z,24.30
2018-05-02T09:23:10.698Z,24.50
2018-05-02T09:25:39.054Z,24.60
2018-05-02T09:28:07.249Z,24.70
2018-05-02T09:30:35.533Z,24.90
2018-05-02T09:33:03.794Z,25.00
2018-05-02T09:35:31.367Z,25.00
2018-05-02T09:37:58.817Z,25.20
2018-05-02T09:40:27.075Z,25.40
2018-05-02T09:42:54.586Z,25.40
2018-05-02T09:45:22.085Z,25.50
2018-05-02T09:47:49.576Z,25.60
2018-05-02T09:50:17.829Z,25.60
2018-05-02T09:52:45.345Z,25.60
2018-05-02T09:55:12.897Z,25.60
2018-05-02T09:57:40.394Z,25.70
2018-05-02T10:00:07.889Z,25.70
2018-05-02T10:02:36.173Z,25.70
2018-05-02T10:05:03.687Z,25.70
2018-05-02T10:07:31.189Z,25.80
2018-05-02T10:09:59.449Z,26.10
2018-05-02T10:12:27.728Z,26.20
2018-05-02T10:14:55.993Z,26.20
2018-05-02T10:17:23.505Z,26.20
2018-05-02T10:19:51.011Z,26.30
2018-05-02T10:22:18.501Z,26.30
2018-05-02T10:24:45.997Z,26.30
2018-05-02T10:27:13.494Z,26.40
2018-05-02T10:29:41.753Z,26.50
2018-05-02T10:32:10.721Z,26.50
2018-05-02T10:34:38.215Z,26.50
2018-05-02T10:37:06.496Z,26.90
2018-05-02T10:39:34.766Z,27.00
2018-05-02T10:42:02.265Z,27.00
2018-05-02T10:44:29.753Z,27.10
2018-05-02T10:46:57.271Z,27.20
2018-05-02T10:49:24.790Z,27.30
2018-05-02T10:51:52.297Z,27.40
2018-05-02T10:54:19.819Z,27.50
2018-05-02T10:56:48.095Z,27.80
2018-05-02T10:59:15.610Z,27.70
2018-05-02T11:01:43.102Z,27.80
2018-05-02T11:04:10.594Z,28.00
2018-05-02T11:06:38.094Z,28.00
2018-05-02T11:09:05.590Z,28.00
2018-05-02T11:11:33.878Z,28.00
2018-05-02T11:14:02.153Z,28.10
2018-05-02T11:16:30.413Z,28.10
2018-05-02T11:18:57.910Z,28.00
2018-05-02T11:21:25.409Z,28.10
2018-05-02T11:23:52.958Z,28.30
2018-05-02T11:26:20.469Z,28.40
2018-05-02T11:28:48.721Z,28.50
2018-05-02T11:31:16.225Z,28.50
2018-05-02T11:33:43.717Z,28.60
2018-05-02T11:36:11.215Z,28.80
2018-05-02T11:38:39.473Z,28.90
2018-05-02T11:41:06.974Z,28.90
2018-05-02T11:43:34.496Z,29.00
2018-05-02T11:46:02.769Z,29.20
2018-05-02T11:48:30.277Z,29.10
2018-05-02T11:50:57.775Z,29.30
2018-05-02T11:53:25.270Z,29.40
2018-05-02T11:55:52.767Z,29.40
2018-05-02T11:58:20.261Z,29.50
2018-05-02T12:00:48.521Z,29.40
2018-05-02T12:03:16.029Z,29.40
2018-05-02T12:05:43.533Z,29.40
2018-05-02T12:08:11.045Z,29.40
2018-05-02T12:10:38.545Z,29.30
2018-05-02T12:13:06.054Z,29.10
2018-05-02T12:15:33.554Z,29.00
2018-05-02T12:18:01.052Z,28.90
2018-05-02T12:20:29.322Z,29.10
2018-05-02T12:22:56.820Z,29.10
2018-05-02T12:25:24.329Z,29.30
2018-05-02T12:27:51.842Z,29.40
2018-05-02T12:30:19.333Z,29.50
2018-05-02T12:32:46.822Z,29.50
2018-05-02T12:35:15.115Z,29.50
2018-05-02T12:37:43.381Z,29.50
2018-05-02T12:40:11.645Z,29.50
2018-05-02T12:42:39.923Z,29.40
2018-05-02T12:45:08.185Z,29.40
2018-05-02T12:47:36.454Z,29.40
2018-05-02T12:50:03.950Z,29.40
2018-05-02T12:52:32.226Z,29.60
2018-05-02T12:55:00.489Z,29.70
2018-05-02T12:57:28.765Z,29.80
2018-05-02T12:59:57.031Z,29.80
2018-05-02T13:02:24.523Z,29.80
2018-05-02T13:04:52.065Z,29.80
2018-05-02T13:07:20.331Z,30.10
2018-05-02T13:09:47.897Z,30.10
2018-05-02T13:12:16.182Z,30.50
2018-05-02T13:14:44.448Z,30.60
2018-05-02T13:17:12.729Z,30.70
2018-05-02T13:19:41.002Z,30.80
2018-05-02T13:22:09.266Z,31.00
2018-05-02T13:24:36.777Z,31.00
2018-05-02T13:27:04.299Z,31.10
2018-05-02T13:29:32.565Z,31.20
2018-05-02T13:32:00.065Z,31.20
2018-05-02T13:34:27.560Z,31.10
2018-05-02T13:36:55.061Z,31.00
2018-05-02T13:39:23.344Z,31.20
2018-05-02T13:41:50.865Z,31.20
2018-05-02T13:44:18.358Z,31.30
2018-05-02T13:46:45.858Z,31.30
2018-05-02T13:49:13.369Z,31.20
2018-05-02T13:51:41.629Z,31.10
2018-05-02T13:54:09.893Z,30.80
2018-05-02T13:56:37.402Z,30.80
2018-05-02T13:59:04.897Z,30.70
2018-05-02T14:01:32.395Z,30.50
2018-05-02T14:04:00.673Z,30.30
2018-05-02T14:06:28.941Z,30.30
2018-05-02T14:08:57.289Z,30.30
2018-05-02T14:11:24.785Z,30.30
2018-05-02T14:13:53.054Z,30.00
2018-05-02T14:16:21.323Z,29.70
2018-05-02T14:18:49.605Z,29.50
2018-05-02T14:21:17.865Z,29.30
2018-05-02T14:23:45.381Z,29.20
2018-05-02T14:26:12.900Z,29.10
2018-05-02T14:28:41.170Z,28.70
2018-05-02T14:31:09.446Z,28.60
2018-05-02T14:33:37.721Z,28.40
2018-05-02T14:36:05.998Z,28.30
2018-05-02T14:38:34.282Z,28.20
2018-05-02T14:41:02.629Z,28.20
2018-05-02T14:43:30.126Z,28.20
2018-05-02T14:45:58.385Z,28.40
2018-05-02T14:48:25.882Z,28.40
2018-05-02T14:50:53.394Z,28.50
2018-05-02T14:53:20.899Z,28.70
2018-05-02T14:55:48.397Z,28.90
2018-05-02T14:58:15.891Z,29.20
2018-05-02T15:00:44.151Z,30.30
2018-05-02T15:03:11.665Z,30.30
2018-05-02T15:05:39.158Z,30.80
2018-05-02T15:08:07.424Z,31.30
2018-05-02T15:10:34.918Z,31.30
2018-05-02T15:13:03.178Z,31.50
2018-05-02T15:15:30.677Z,31.40
2018-05-02T15:17:58.228Z,32.00
2018-05-02T15:20:25.679Z,32.30
2018-05-02T15:22:53.225Z,32.50
2018-05-02T15:25:21.506Z,32.90
2018-05-02T15:27:49.776Z,32.90
2018-05-02T15:30:18.054Z,33.00
2018-05-02T15:32:46.329Z,33.00
2018-05-02T15:35:14.596Z,33.10
2018-05-02T15:37:42.104Z,33.10
2018-05-02T15:40:09.594Z,33.00
2018-05-02T15:42:37.112Z,33.00
2018-05-02T15:45:04.615Z,33.00
2018-05-02T15:47:33.633Z,32.90
2018-05-02T15:50:01.918Z,32.80
2018-05-02T15:52:30.179Z,32.80
2018-05-02T15:54:58.461Z,32.80
2018-05-02T15:57:26.745Z,32.90
2018-05-02T15:59:55.010Z,32.90
2018-05-02T16:02:23.294Z,32.80
2018-05-02T16:04:51.585Z,32.80
2018-05-02T16:07:19.093Z,32.70
2018-05-02T16:09:46.590Z,32.70
2018-05-02T16:12:14.866Z,31.70
2018-05-02T16:14:43.141Z,31.20
2018-05-02T16:17:11.419Z,30.70
2018-05-02T16:19:39.681Z,30.30
2018-05-02T16:22:08.046Z,29.90
2018-05-02T16:24:36.260Z,29.60
2018-05-02T16:27:03.761Z,29.60
2018-05-02T16:29:31.270Z,29.30
2018-05-02T16:31:59.537Z,29.10
2018-05-02T16:34:27.804Z,29.00
2018-05-02T16:36:55.318Z,29.00
2018-05-02T16:39:22.831Z,29.00
2018-05-02T16:41:51.099Z,28.90
2018-05-02T16:44:18.602Z,28.80
2018-05-02T16:46:46.107Z,28.70
2018-05-02T16:49:13.671Z,28.60
2018-05-02T16:51:41.165Z,28.50
2018-05-02T16:54:08.661Z,28.40
2018-05-02T16:56:36.220Z,28.20
2018-05-02T16:59:03.685Z,28.00
2018-05-02T17:01:31.177Z,27.80
2018-05-02T17:03:59.477Z,27.40
2018-05-02T17:06:26.973Z,27.40
2018-05-02T17:08:54.474Z,27.30
2018-05-02T17:11:22.752Z,26.90
2018-05-02T17:13:51.017Z,26.80
2018-05-02T17:16:19.297Z,26.70
2018-05-02T17:18:47.567Z,26.60
2018-05-02T17:21:15.070Z,26.60
2018-05-02T17:23:42.578Z,26.50
2018-05-02T17:26:10.090Z,26.40
2018-05-02T17:28:37.601Z,26.30
2018-05-02T17:31:05.113Z,26.20
2018-05-02T17:33:32.611Z,26.00
2018-05-02T17:36:00.112Z,25.80
2018-05-02T17:38:27.650Z,25.60
2018-05-02T17:40:56.006Z,25.00
2018-05-02T17:43:23.442Z,24.90
2018-05-02T17:45:50.961Z,24.70
2018-05-02T17:48:18.503Z,24.50
2018-05-02T17:50:46.767Z,24.10
2018-05-02T17:53:15.054Z,23.90
2018-05-02T17:55:43.337Z,23.60
2018-05-02T17:58:11.617Z,23.40
2018-05-02T18:00:39.882Z,23.00
2018-05-02T18:03:08.189Z,22.60
2018-05-02T18:05:35.689Z,22.60
2018-05-02T18:08:03.966Z,22.10
2018-05-02T18:10:32.330Z,21.90
2018-05-02T18:13:00.641Z,21.70
2018-05-02T18:15:28.918Z,21.60
2018-05-02T18:17:57.193Z,21.60
2018-05-02T18:20:25.489Z,21.50
2018-05-02T18:22:53.780Z,21.40
2018-05-02T18:25:22.064Z,21.20
2018-05-02T18:27:49.635Z,21.20
2018-05-02T18:30:18.676Z,20.60
2018-05-02T18:32:46.182Z,20.60
2018-05-02T18:35:13.678Z,20.40
2018-05-02T18:37:42.694Z,20.00
2018-05-02T18:40:10.985Z,20.10
2018-05-02T18:42:39.245Z,20.00
2018-05-02T18:45:07.525Z,20.00
2018-05-02T18:47:35.791Z,20.00
2018-05-02T18:50:04.053Z,20.10
2018-05-02T18:52:32.329Z,20.10
2018-05-02T18:54:59.844Z,20.00
2018-05-02T18:57:27.362Z,20.10
2018-05-02T18:59:54.855Z,20.00
2018-05-02T19:02:22.345Z,20.00
2018-05-02T19:04:49.854Z,19.90
2018-05-02T19:07:18.237Z,19.80
2018-05-02T19:09:46.503Z,19.50
2018-05-02T19:12:14.842Z,19.30
2018-05-02T19:14:43.070Z,19.20
2018-05-02T19:17:10.589Z,19.20
2018-05-02T19:19:43.325Z,19.00
2018-05-02T19:22:10.390Z,18.80
2018-05-02T19:24:43.308Z,18.70
2018-05-02T19:27:10.819Z,18.60
2018-05-02T19:29:38.407Z,18.50
2018-05-02T19:32:12.266Z,18.50
2018-05-02T19:34:40.525Z,18.50
2018-05-02T19:37:08.794Z,18.40
2018-05-02T19:39:42.093Z,18.40
2018-05-02T19:42:16.197Z,18.30
2018-05-02T19:44:43.713Z,18.20
2018-05-02T19:47:11.233Z,18.20
2018-05-02T19:49:39.497Z,18.30
2018-05-02T19:52:12.823Z,18.30
2018-05-02T19:54:40.322Z,18.30
2018-05-02T19:57:07.828Z,18.40
2018-05-02T19:59:36.097Z,18.50
2018-05-02T20:02:09.952Z,18.60
2018-05-02T20:04:37.467Z,18.50
2018-05-02T20:07:05.737Z,18.50
2018-05-02T20:09:39.781Z,18.40
2018-05-02T20:12:13.022Z,18.40
2018-05-02T20:14:40.520Z,18.30
2018-05-02T20:17:08.039Z,18.20
2018-05-02T20:19:36.307Z,18.10
